Time;durP1;ratioP1;P1;durP2;ratioP2;P2;SDS_P1;SDS_P2;PMS_P1;PMS_P2;Temp;Humidity;BMP_temperature;BMP_pressure;BME280_temperature;BME280_humidity;BME280_pressure;Samples;Min_cycle;Max_cycle;Signal;HPM_P1;HPM_P2
2022/01/23 00:00:42;;;;;;;0.73;0.50;;;-4.30;83.10;;;;;;5063267;28;20339;-72
2022/01/23 00:03:16;;;;;;;0.30;0.30;;;-4.30;83.00;;;;;;5077494;28;20201;-72
2022/01/23 00:05:43;;;;;;;0.27;0.27;;;-4.20;83.00;;;;;;5074305;28;20189;-72
2022/01/23 00:08:11;;;;;;;0.17;0.17;;;-4.20;83.10;;;;;;5073950;28;20198;-72
2022/01/23 00:10:37;;;;;;;0.10;0.10;;;-4.20;83.00;;;;;;5072552;28;20214;-72
2022/01/23 00:13:09;;;;;;;0.10;0.10;;;-4.20;83.00;;;;;;5071998;28;20220;-72
2022/01/23 00:18:20;;;;;;;1.83;0.50;;;-4.20;83.10;;;;;;5072932;28;20728;-72
2022/01/23 00:20:47;;;;;;;0.30;0.30;;;-4.20;83.20;;;;;;5073694;28;20719;-73
2022/01/23 00:23:27;;;;;;;0.30;0.30;;;-4.20;83.30;;;;;;5072840;28;20183;-72
2022/01/23 00:31:22;;;;;;;0.53;0.53;;;-4.20;83.30;;;;;;5062857;28;20853;-72
2022/01/23 00:33:48;;;;;;;0.40;0.40;;;-4.20;83.40;;;;;;5073369;28;20182;-72
2022/01/23 00:36:14;;;;;;;1.03;0.47;;;-4.10;83.50;;;;;;5072709;28;20235;-72
2022/01/23 00:38:40;;;;;;;2.27;0.50;;;-4.10;83.50;;;;;;5070675;28;20727;-72
2022/01/23 00:41:06;;;;;;;0.27;0.27;;;-4.10;83.50;;;;;;5071008;28;20207;-74
2022/01/23 00:43:34;;;;;;;2.47;0.30;;;-4.10;83.50;;;;;;5077053;28;20214;-73
2022/01/23 00:49:13;;;;;;;1.80;0.37;;;-4.00;83.70;;;;;;5073415;28;20174;-72
2022/01/23 00:51:37;;;;;;;0.20;0.20;;;-4.00;83.70;;;;;;5068864;28;20186;-73
2022/01/23 00:54:05;;;;;;;0.20;0.20;;;-4.00;83.80;;;;;;5072986;28;20175;-72
2022/01/23 00:56:32;;;;;;;0.20;0.20;;;-4.00;83.80;;;;;;5073168;28;20214;-73
2022/01/23 00:58:58;;;;;;;0.30;0.30;;;-4.00;83.90;;;;;;5069903;28;20176;-73
2022/01/23 01:01:25;;;;;;;0.10;0.10;;;-4.00;84.10;;;;;;5069935;28;20225;-72
2022/01/23 01:03:50;;;;;;;0.20;0.20;;;-4.00;84.30;;;;;;5075600;28;20242;-71
2022/01/23 01:06:17;;;;;;;0.77;0.77;;;-4.00;84.30;;;;;;5073833;28;20178;-72
2022/01/23 01:08:43;;;;;;;0.20;0.20;;;-4.00;84.50;;;;;;5069594;28;20195;-71
2022/01/23 01:32:56;;;;;;;0.77;0.40;;;-4.20;85.40;;;;;;5029982;28;20193;-73
2022/01/23 01:35:28;;;;;;;0.33;0.33;;;-4.20;85.40;;;;;;5027949;28;20238;-72
2022/01/23 01:37:54;;;;;;;0.20;0.20;;;-4.30;85.50;;;;;;5027484;28;20227;-73
2022/01/23 01:40:22;;;;;;;0.40;0.40;;;-4.40;85.90;;;;;;5028618;28;20182;-72
2022/01/23 01:42:48;;;;;;;2.20;0.60;;;-4.40;86.20;;;;;;5030712;28;20721;-74
2022/01/23 01:45:24;;;;;;;0.43;0.43;;;-4.40;86.30;;;;;;5024806;28;20189;-74
2022/01/23 01:47:51;;;;;;;0.53;0.43;;;-4.40;86.50;;;;;;5031919;28;20397;-74
2022/01/23 01:50:17;;;;;;;2.07;0.60;;;-4.50;86.50;;;;;;5034430;28;20276;-73
2022/01/23 01:52:43;;;;;;;0.97;0.30;;;-4.50;86.70;;;;;;5068218;28;20194;-73
2022/01/23 01:55:14;;;;;;;0.50;0.50;;;-4.50;86.90;;;;;;5067583;28;20723;-74
2022/01/23 01:57:51;;;;;;;0.40;0.40;;;-4.50;87.10;;;;;;5068483;28;20702;-73
2022/01/23 02:08:28;;;;;;;0.20;0.20;;;-4.60;87.30;;;;;;5069072;28;20198;-72
2022/01/23 02:11:04;;;;;;;2.30;0.40;;;-4.60;87.30;;;;;;5070846;28;20274;-72
2022/01/23 02:13:47;;;;;;;0.30;0.30;;;-4.60;87.30;;;;;;5068334;28;20655;-72
2022/01/23 02:57:22;;;;;;;0.43;0.43;;;-4.90;86.90;;;;;;4904689;29;20228;-73
2022/01/23 02:59:49;;;;;;;0.73;0.73;;;-4.90;86.90;;;;;;4930683;29;20250;-73
2022/01/23 03:02:35;;;;;;;0.10;0.10;;;-4.90;86.80;;;;;;4936166;29;20190;-73
2022/01/23 03:05:02;;;;;;;0.30;0.30;;;-4.90;86.70;;;;;;4951465;28;20790;-73
2022/01/23 03:10:19;;;;;;;0.83;0.57;;;-4.90;86.60;;;;;;5006797;28;20347;-72
2022/01/23 03:28:28;;;;;;;0.30;0.30;;;-5.00;86.00;;;;;;5067636;28;20183;-73
2022/01/23 03:31:21;;;;;;;1.67;1.57;;;-5.00;86.00;;;;;;5071760;28;20178;-73
2022/01/23 03:33:47;;;;;;;0.40;0.40;;;-5.00;85.90;;;;;;5052681;28;20183;-73
2022/01/23 03:36:13;;;;;;;0.30;0.30;;;-5.00;85.90;;;;;;5056013;28;20859;-74
2022/01/23 03:38:39;;;;;;;0.47;0.47;;;-4.90;85.80;;;;;;5072311;28;20311;-73
2022/01/23 03:41:05;;;;;;;0.63;0.63;;;-4.90;85.70;;;;;;5062317;28;20229;-73
2022/01/23 03:43:34;;;;;;;0.50;0.50;;;-4.90;85.60;;;;;;5061491;28;20765;-72
2022/01/23 03:51:12;;;;;;;0.30;0.30;;;-4.80;85.10;;;;;;5059798;28;20188;-73
2022/01/23 03:53:39;;;;;;;0.40;0.40;;;-4.80;85.10;;;;;;5061433;28;20186;-73
2022/01/23 03:56:06;;;;;;;0.17;0.17;;;-4.70;84.90;;;;;;5069187;28;20188;-73
2022/01/23 03:58:32;;;;;;;0.20;0.20;;;-4.70;84.70;;;;;;5067240;28;20217;-73
2022/01/23 04:00:58;;;;;;;0.23;0.23;;;-4.70;84.60;;;;;;5063652;28;20582;-73
2022/01/23 04:03:24;;;;;;;0.60;0.60;;;-4.70;84.50;;;;;;5070465;28;20185;-73
2022/01/23 04:05:53;;;;;;;0.20;0.07;;;-4.60;84.40;;;;;;5067432;28;20191;-73
2022/01/23 04:08:20;;;;;;;0.20;0.20;;;-4.60;84.20;;;;;;5066834;28;20182;-73
2022/01/23 04:10:46;;;;;;;0.77;0.77;;;-4.60;84.10;;;;;;5063115;28;20638;-73
2022/01/23 04:34:35;;;;;;;1.03;0.70;;;-4.40;82.80;;;;;;5027532;28;20603;-73
2022/01/23 05:04:35;;;;;;;1.30;0.23;;;-4.50;81.80;;;;;;4964093;28;20229;-74
2022/01/23 05:07:13;;;;;;;0.60;0.60;;;-4.50;82.00;;;;;;4962459;28;20200;-74
2022/01/23 05:09:39;;;;;;;1.07;0.77;;;-4.50;82.00;;;;;;4963422;28;20198;-74
2022/01/23 05:12:07;;;;;;;0.30;0.30;;;-4.60;81.90;;;;;;5006163;28;20193;-74
2022/01/23 05:14:39;;;;;;;1.80;0.80;;;-4.60;82.00;;;;;;5004109;28;20224;-73
2022/01/23 05:17:08;;;;;;;0.30;0.30;;;-4.60;82.00;;;;;;4999065;28;20219;-73
2022/01/23 05:19:34;;;;;;;0.30;0.30;;;-4.60;81.90;;;;;;5006592;28;20190;-73
2022/01/23 05:24:32;;;;;;;1.30;0.67;;;-4.60;81.70;;;;;;5011273;28;20906;-73
2022/01/23 05:27:00;;;;;;;0.57;0.57;;;-4.50;81.60;;;;;;5010207;28;20334;-73
2022/01/23 05:29:26;;;;;;;0.50;0.50;;;-4.50;81.50;;;;;;5006115;28;20191;-73
2022/01/23 05:31:53;;;;;;;0.50;0.50;;;-4.50;81.40;;;;;;5009032;28;20227;-73
2022/01/23 05:34:21;;;;;;;1.03;0.53;;;-4.50;81.30;;;;;;5012413;28;20200;-73
2022/01/23 05:36:46;;;;;;;0.27;0.27;;;-4.50;81.40;;;;;;5007492;28;20196;-72
2022/01/23 05:39:14;;;;;;;0.40;0.40;;;-4.50;81.10;;;;;;4997727;28;20182;-73
2022/01/23 05:41:39;;;;;;;0.47;0.47;;;-4.50;81.10;;;;;;5058455;28;20303;-73
2022/01/23 05:44:05;;;;;;;0.13;0.13;;;-4.50;81.10;;;;;;5070053;28;20324;-72
2022/01/23 05:46:31;;;;;;;0.40;0.40;;;-4.50;81.00;;;;;;5069146;28;20183;-73
2022/01/23 05:48:57;;;;;;;3.30;0.67;;;-4.50;81.00;;;;;;5069637;28;20186;-73
2022/01/23 05:51:23;;;;;;;0.67;0.67;;;-4.50;80.90;;;;;;5067888;28;20274;-75
2022/01/23 05:53:48;;;;;;;0.10;0.10;;;-4.50;80.80;;;;;;5087958;28;21002;-73
2022/01/23 05:56:16;;;;;;;2.77;0.37;;;-4.60;80.80;;;;;;5055240;28;20198;-74
2022/01/23 05:58:42;;;;;;;0.30;0.30;;;-4.60;80.90;;;;;;5080369;28;20607;-75
2022/01/23 06:01:08;;;;;;;0.30;0.30;;;-4.60;80.90;;;;;;5067014;28;20277;-73
2022/01/23 06:03:34;;;;;;;0.27;0.27;;;-4.70;81.00;;;;;;5080238;28;20566;-73
2022/01/23 06:06:00;;;;;;;0.20;0.20;;;-4.70;80.90;;;;;;5064888;28;20289;-73
2022/01/23 06:08:25;;;;;;;0.67;0.30;;;-4.70;81.00;;;;;;5063798;28;20190;-73
2022/01/23 06:10:56;;;;;;;0.20;0.20;;;-4.70;81.00;;;;;;5069577;28;20210;-73
2022/01/23 06:13:25;;;;;;;0.60;0.60;;;-4.80;81.00;;;;;;5066508;28;20253;-73
2022/01/23 06:15:51;;;;;;;0.30;0.30;;;-4.70;80.90;;;;;;5065884;28;20627;-72
2022/01/23 06:18:17;;;;;;;0.30;0.30;;;-4.80;81.20;;;;;;5063542;28;20214;-73
2022/01/23 06:20:43;;;;;;;0.33;0.33;;;-4.70;81.10;;;;;;5067221;28;20190;-73
2022/01/23 06:23:09;;;;;;;0.30;0.30;;;-4.70;81.10;;;;;;5077974;28;20181;-73
2022/01/23 06:25:37;;;;;;;0.40;0.40;;;-4.70;81.00;;;;;;5066589;28;20719;-73
2022/01/23 06:28:05;;;;;;;0.20;0.20;;;-4.70;81.00;;;;;;5069872;28;20223;-71
2022/01/23 06:30:32;;;;;;;2.90;0.37;;;-4.70;81.00;;;;;;5065819;28;20259;-73
2022/01/23 06:32:57;;;;;;;0.67;0.67;;;-4.70;80.90;;;;;;5069098;28;20179;-72
2022/01/23 06:35:23;;;;;;;1.70;0.70;;;-4.60;81.00;;;;;;5069133;28;20284;-74
2022/01/23 06:37:49;;;;;;;0.67;0.67;;;-4.60;81.10;;;;;;5068047;28;20292;-74
2022/01/23 06:40:15;;;;;;;0.57;0.37;;;-4.60;81.20;;;;;;5070544;28;20261;-73
2022/01/23 06:42:40;;;;;;;0.53;0.47;;;-4.60;81.10;;;;;;5069128;28;20180;-74
2022/01/23 06:45:06;;;;;;;0.60;0.60;;;-4.50;81.10;;;;;;5074125;28;20205;-74
2022/01/23 06:47:32;;;;;;;0.53;0.53;;;-4.40;81.10;;;;;;5074793;28;20181;-74
2022/01/23 06:49:59;;;;;;;0.40;0.40;;;-4.40;81.10;;;;;;5060227;28;20194;-73
2022/01/23 06:52:25;;;;;;;1.60;0.50;;;-4.20;81.00;;;;;;5067254;28;20197;-72
2022/01/23 06:54:51;;;;;;;0.60;0.60;;;-4.00;80.60;;;;;;5064919;28;20178;-74
2022/01/23 06:57:17;;;;;;;0.30;0.30;;;-3.80;80.00;;;;;;5066984;28;20268;-74
2022/01/23 06:59:43;;;;;;;1.07;0.60;;;-3.50;79.70;;;;;;5072432;28;20184;-73
2022/01/23 07:02:09;;;;;;;0.10;0.10;;;-3.20;79.10;;;;;;5070242;28;20188;-73
2022/01/23 07:04:35;;;;;;;1.07;0.53;;;-2.90;78.20;;;;;;5076093;28;20184;-73
2022/01/23 07:07:01;;;;;;;0.77;0.77;;;-2.60;77.50;;;;;;5053264;28;20602;-74
2022/01/23 07:09:26;;;;;;;0.50;0.50;;;-2.30;76.70;;;;;;5064758;28;20217;-73
2022/01/23 07:11:52;;;;;;;1.27;1.27;;;-2.00;76.00;;;;;;5065069;28;20581;-73
2022/01/23 07:14:18;;;;;;;2.07;0.90;;;-1.70;74.80;;;;;;5067204;28;20190;-73
2022/01/23 07:16:44;;;;;;;1.40;1.20;;;-1.40;74.60;;;;;;5062574;28;20190;-73
2022/01/23 07:19:10;;;;;;;0.70;0.70;;;-1.20;73.40;;;;;;5062029;28;20675;-73
2022/01/23 07:21:35;;;;;;;3.50;1.53;;;-1.10;73.10;;;;;;5064783;28;20593;-73
2022/01/23 07:24:01;;;;;;;1.07;0.97;;;-1.00;72.40;;;;;;5068086;28;20184;-72
2022/01/23 07:26:28;;;;;;;0.70;0.70;;;-0.90;72.10;;;;;;5059782;28;20670;-72
2022/01/23 07:28:57;;;;;;;1.17;1.17;;;-1.10;71.80;;;;;;5062439;28;20186;-73
2022/01/23 07:34:03;;;;;;;3.17;1.60;;;-1.20;72.70;;;;;;5065739;28;20197;-72
2022/01/23 07:36:29;;;;;;;0.90;0.90;;;-1.10;72.60;;;;;;5054291;28;20187;-73
2022/01/23 07:38:55;;;;;;;2.20;1.00;;;-1.30;72.30;;;;;;5064047;28;20218;-74
2022/01/23 07:41:21;;;;;;;1.83;1.60;;;-1.60;72.60;;;;;;5057314;28;20240;-72
2022/01/23 07:43:48;;;;;;;3.57;0.90;;;-1.80;73.30;;;;;;5061093;28;20182;-73
2022/01/23 07:46:14;;;;;;;0.67;0.67;;;-2.00;73.90;;;;;;5056408;28;20187;-72
2022/01/23 07:48:40;;;;;;;1.00;1.00;;;-2.10;74.40;;;;;;5061918;28;20286;-71
2022/01/23 07:51:06;;;;;;;1.00;0.90;;;-2.20;74.90;;;;;;5057664;28;20600;-72
2022/01/23 07:53:31;;;;;;;0.90;0.90;;;-2.10;75.00;;;;;;5059467;28;20182;-69
2022/01/23 07:55:57;;;;;;;1.70;1.43;;;-2.20;75.00;;;;;;5053881;28;20193;-72
2022/01/23 07:58:23;;;;;;;1.00;1.00;;;-2.30;75.30;;;;;;5063344;28;20217;-72
2022/01/23 08:00:49;;;;;;;1.10;1.10;;;-2.30;75.40;;;;;;5055512;28;20351;-72
2022/01/23 08:03:16;;;;;;;2.57;1.67;;;-2.50;75.30;;;;;;5058804;28;20227;-72
2022/01/23 08:05:45;;;;;;;0.87;0.87;;;-2.60;75.60;;;;;;5057648;28;20190;-73
2022/01/23 08:08:11;;;;;;;1.47;1.23;;;-2.60;75.90;;;;;;5065484;28;20190;-73
2022/01/23 08:10:38;;;;;;;2.90;1.50;;;-2.70;76.30;;;;;;5063638;28;20658;-73
2022/01/23 08:13:05;;;;;;;1.40;1.40;;;-2.70;76.30;;;;;;5068196;28;20202;-72
2022/01/23 08:15:32;;;;;;;0.97;0.97;;;-2.70;76.20;;;;;;5065251;28;20190;-73
2022/01/23 08:18:05;;;;;;;0.60;0.60;;;-2.80;76.30;;;;;;5069521;28;20675;-75
2022/01/23 08:20:33;;;;;;;3.80;0.73;;;-2.90;76.40;;;;;;5062930;28;20210;-70
2022/01/23 08:23:01;;;;;;;0.97;0.97;;;-2.90;76.30;;;;;;5065849;28;20182;-69
2022/01/23 08:25:27;;;;;;;0.70;0.70;;;-3.00;76.00;;;;;;5061987;28;20175;-69
2022/01/23 08:27:53;;;;;;;0.87;0.77;;;-3.10;76.50;;;;;;5069757;28;20324;-69
2022/01/23 08:30:19;;;;;;;1.60;1.30;;;-3.10;77.70;;;;;;5063929;28;20669;-68
2022/01/23 08:32:45;;;;;;;2.30;1.57;;;-3.00;77.60;;;;;;5063194;28;20189;-72
2022/01/23 08:35:10;;;;;;;1.70;1.67;;;-2.90;76.60;;;;;;5064221;28;20569;-71
2022/01/23 08:37:37;;;;;;;1.57;1.40;;;-2.90;76.10;;;;;;5070966;28;20230;-72
2022/01/23 08:40:05;;;;;;;1.50;1.50;;;-3.00;75.70;;;;;;5053941;28;20221;-73
2022/01/23 08:42:30;;;;;;;1.00;1.00;;;-2.90;75.80;;;;;;5063901;28;20265;-71
2022/01/23 08:44:56;;;;;;;0.87;0.80;;;-2.90;75.80;;;;;;5060209;28;20623;-70
2022/01/23 08:47:23;;;;;;;1.20;1.07;;;-3.00;75.60;;;;;;5066328;28;20605;-70
2022/01/23 08:49:50;;;;;;;3.30;1.20;;;-2.90;75.70;;;;;;5065324;28;20189;-71
2022/01/23 08:52:19;;;;;;;0.80;0.80;;;-2.80;75.90;;;;;;5067112;28;20638;-71
2022/01/23 08:54:50;;;;;;;4.80;1.77;;;-2.80;75.80;;;;;;5067063;28;20191;-72
2022/01/23 08:57:18;;;;;;;2.63;0.77;;;-2.70;75.30;;;;;;5070014;28;20236;-71
2022/01/23 08:59:44;;;;;;;0.60;0.60;;;-2.70;75.00;;;;;;5071938;28;20184;-71
2022/01/23 09:02:10;;;;;;;1.30;1.30;;;-2.70;75.10;;;;;;5065323;28;20177;-71
2022/01/23 09:04:36;;;;;;;0.77;0.77;;;-2.70;75.20;;;;;;5073064;28;20239;-69
2022/01/23 09:07:03;;;;;;;0.90;0.90;;;-2.60;75.00;;;;;;5078558;28;20192;-73
2022/01/23 09:09:31;;;;;;;1.43;1.43;;;-2.60;74.90;;;;;;5069208;28;20175;-72
2022/01/23 09:14:23;;;;;;;0.87;0.83;;;-2.60;74.50;;;;;;5064306;28;20302;-71
2022/01/23 09:16:51;;;;;;;2.03;1.13;;;-2.60;74.50;;;;;;5072158;28;20630;-71
2022/01/23 09:19:19;;;;;;;1.20;1.20;;;-2.60;74.50;;;;;;5065966;28;20187;-71
2022/01/23 09:21:46;;;;;;;1.47;1.47;;;-2.60;75.00;;;;;;5073499;28;20213;-70
2022/01/23 09:24:11;;;;;;;1.53;1.40;;;-2.60;75.10;;;;;;5076479;28;20185;-70
2022/01/23 09:26:38;;;;;;;3.40;1.27;;;-2.60;74.90;;;;;;5073437;28;20178;-70
2022/01/23 09:29:18;;;;;;;3.47;2.13;;;-2.60;75.10;;;;;;5059572;28;20215;-71
2022/01/23 09:31:48;;;;;;;2.10;1.07;;;-2.60;75.00;;;;;;5064078;28;20309;-73
2022/01/23 09:34:19;;;;;;;4.50;1.13;;;-2.60;74.70;;;;;;5078463;28;20171;-72
2022/01/23 09:36:45;;;;;;;0.70;0.70;;;-2.60;74.30;;;;;;5076647;28;20179;-72
2022/01/23 09:39:15;;;;;;;2.23;0.90;;;-2.70;74.30;;;;;;5070183;28;20205;-72
2022/01/23 09:41:46;;;;;;;0.83;0.83;;;-2.80;74.70;;;;;;5067616;28;20189;-72
2022/01/23 09:44:15;;;;;;;0.50;0.50;;;-2.80;74.60;;;;;;5070531;28;20178;-76
2022/01/23 09:46:43;;;;;;;7.53;1.20;;;-2.80;74.60;;;;;;5069460;28;20177;-69
2022/01/23 09:49:10;;;;;;;4.43;1.63;;;-2.90;74.40;;;;;;5067590;28;20190;-71
2022/01/23 09:51:41;;;;;;;0.53;0.53;;;-2.90;74.70;;;;;;5069373;28;20183;-71
2022/01/23 09:54:08;;;;;;;0.90;0.90;;;-2.80;74.90;;;;;;5073875;28;20659;-72
2022/01/23 09:56:35;;;;;;;2.20;1.10;;;-2.80;74.70;;;;;;5071014;28;20189;-70
2022/01/23 09:59:01;;;;;;;1.30;0.83;;;-2.70;74.40;;;;;;5077790;28;20216;-71
2022/01/23 10:01:27;;;;;;;1.03;1.03;;;-2.70;74.50;;;;;;5071993;28;20179;-72
2022/01/23 10:03:53;;;;;;;2.53;1.13;;;-2.80;74.20;;;;;;5066711;28;20319;-73
2022/01/23 10:06:19;;;;;;;0.67;0.67;;;-2.80;73.90;;;;;;5071190;28;20178;-71
2022/01/23 10:08:45;;;;;;;0.70;0.70;;;-2.80;74.00;;;;;;5071784;28;20182;-72
2022/01/23 10:11:13;;;;;;;0.80;0.80;;;-2.80;74.40;;;;;;5066662;28;20187;-74
2022/01/23 10:13:41;;;;;;;3.00;1.00;;;-2.70;74.30;;;;;;5071524;28;20182;-72
2022/01/23 10:16:07;;;;;;;0.90;0.90;;;-2.70;74.10;;;;;;5070334;28;20681;-70
2022/01/23 10:18:33;;;;;;;0.50;0.50;;;-2.70;74.10;;;;;;5073339;28;20206;-71
2022/01/23 10:20:59;;;;;;;1.27;1.17;;;-2.70;74.20;;;;;;5074608;28;20197;-71
2022/01/23 10:23:25;;;;;;;1.10;0.90;;;-2.70;74.10;;;;;;5076486;28;20181;-72
2022/01/23 10:25:53;;;;;;;1.33;1.27;;;-2.70;73.80;;;;;;5075613;28;20184;-71
2022/01/23 10:28:22;;;;;;;0.77;0.73;;;-2.60;74.00;;;;;;5069173;28;20178;-71
2022/01/23 10:30:55;;;;;;;0.40;0.40;;;-2.60;74.00;;;;;;5071209;28;20182;-71
2022/01/23 10:33:31;;;;;;;0.80;0.80;;;-2.60;73.70;;;;;;5068201;28;20190;-71
2022/01/23 10:36:05;;;;;;;0.67;0.67;;;-2.50;74.10;;;;;;5071293;28;20242;-70
2022/01/23 10:38:39;;;;;;;1.23;1.13;;;-2.50;73.70;;;;;;5073598;28;20239;-71
2022/01/23 10:47:28;;;;;;;1.37;0.70;;;-2.40;73.40;;;;;;5074246;28;20239;-69
2022/01/23 10:49:58;;;;;;;1.03;1.03;;;-2.40;73.40;;;;;;5075423;28;20188;-70
2022/01/23 10:52:40;;;;;;;0.93;0.77;;;-2.40;73.00;;;;;;5073903;28;20184;-69
2022/01/23 10:55:32;;;;;;;2.10;0.80;;;-2.30;73.40;;;;;;5071655;28;20189;-70
2022/01/23 10:58:02;;;;;;;1.00;1.00;;;-2.20;74.30;;;;;;5072703;28;20222;-70
2022/01/23 11:00:32;;;;;;;1.97;1.33;;;-2.10;73.60;;;;;;5071577;28;20271;-70
2022/01/23 11:03:02;;;;;;;2.17;1.13;;;-2.00;73.30;;;;;;5067713;28;20178;-70
2022/01/23 11:05:36;;;;;;;0.63;0.63;;;-2.00;73.80;;;;;;5079203;28;20240;-70
2022/01/23 11:08:17;;;;;;;0.90;0.90;;;-1.90;74.50;;;;;;5075000;28;20238;-70
2022/01/23 11:10:59;;;;;;;1.27;1.17;;;-2.00;73.70;;;;;;5067798;28;20715;-70
2022/01/23 11:19:24;;;;;;;0.50;0.50;;;-2.10;73.80;;;;;;5074487;28;20197;-70
2022/01/23 11:21:52;;;;;;;0.37;0.37;;;-2.10;73.60;;;;;;5072384;28;20862;-70
2022/01/23 11:24:19;;;;;;;0.80;0.80;;;-2.00;73.10;;;;;;5073708;28;20215;-70
2022/01/23 11:26:45;;;;;;;0.87;0.70;;;-2.00;73.00;;;;;;5074194;28;20644;-70
2022/01/23 11:29:17;;;;;;;0.60;0.60;;;-1.90;72.80;;;;;;5071879;28;20367;-70
2022/01/23 11:31:44;;;;;;;0.60;0.60;;;-1.90;71.80;;;;;;5073419;28;20182;-71
2022/01/23 11:34:15;;;;;;;0.77;0.77;;;-1.90;72.30;;;;;;5069844;28;20180;-70
2022/01/23 11:36:42;;;;;;;0.93;0.40;;;-1.90;72.80;;;;;;5074696;28;20178;-71
2022/01/23 11:39:14;;;;;;;1.07;0.73;;;-2.00;75.80;;;;;;5073791;28;20218;-70
2022/01/23 11:56:35;;;;;;;2.43;1.47;;;-2.00;72.60;;;;;;5033570;28;20873;-70
2022/01/23 11:59:09;;;;;;;1.93;1.33;;;-2.00;72.40;;;;;;5036234;28;20218;-70
2022/01/23 12:01:38;;;;;;;1.00;1.00;;;-2.00;72.40;;;;;;5035125;28;20282;-70
2022/01/23 12:04:11;;;;;;;1.73;0.67;;;-2.00;72.40;;;;;;5036831;28;20634;-70
2022/01/23 12:06:39;;;;;;;0.83;0.83;;;-2.00;72.40;;;;;;5027226;28;20199;-70
2022/01/23 12:09:16;;;;;;;0.60;0.60;;;-2.10;72.10;;;;;;5037267;28;20183;-70
2022/01/23 12:12:31;;;;;;;0.67;0.57;;;-2.10;72.30;;;;;;5037348;28;20171;-70
2022/01/23 12:18:25;;;;;;;0.63;0.63;;;-2.10;72.30;;;;;;5033388;28;20258;-70
2022/01/23 12:20:52;;;;;;;1.40;0.83;;;-2.10;71.80;;;;;;5047700;28;20203;-69
2022/01/23 12:23:19;;;;;;;0.60;0.60;;;-2.20;71.80;;;;;;5081654;28;21673;-70
2022/01/23 12:25:47;;;;;;;1.10;0.60;;;-2.20;72.20;;;;;;5082293;28;20189;-70
2022/01/23 12:28:21;;;;;;;1.20;1.03;;;-2.20;72.00;;;;;;5077275;28;20619;-70
2022/01/23 12:30:53;;;;;;;1.23;0.97;;;-2.20;72.20;;;;;;5073777;28;20176;-69
2022/01/23 12:33:39;;;;;;;0.70;0.70;;;-2.40;72.30;;;;;;5077396;28;20205;-70
2022/01/23 12:36:19;;;;;;;1.13;1.13;;;-2.40;72.90;;;;;;5071697;28;20178;-69
2022/01/23 12:38:48;;;;;;;0.60;0.57;;;-2.50;73.30;;;;;;5079583;28;20704;-71
2022/01/23 12:41:34;;;;;;;1.50;1.40;;;-2.50;73.40;;;;;;5074543;28;20260;-70
2022/01/23 12:44:01;;;;;;;4.43;1.20;;;-2.50;73.80;;;;;;5077049;28;20832;-69
2022/01/23 12:46:54;;;;;;;0.50;0.43;;;-2.50;73.80;;;;;;5077961;28;20172;-70
2022/01/23 12:49:20;;;;;;;0.60;0.60;;;-2.50;74.00;;;;;;5024656;28;20223;-69
2022/01/23 12:51:51;;;;;;;1.10;0.53;;;-2.50;74.00;;;;;;5024186;28;20226;-70
2022/01/23 12:54:20;;;;;;;1.57;1.00;;;-2.50;74.10;;;;;;5024266;28;20278;-71
2022/01/23 12:56:48;;;;;;;1.43;0.60;;;-2.50;74.10;;;;;;5020680;28;20692;-69
2022/01/23 12:59:23;;;;;;;1.53;1.43;;;-2.50;74.40;;;;;;5024165;28;20198;-70
2022/01/23 13:01:55;;;;;;;0.90;0.90;;;-2.50;74.60;;;;;;5021519;28;20187;-69
2022/01/23 13:04:21;;;;;;;0.60;0.60;;;-2.40;74.40;;;;;;5024105;28;20186;-73
2022/01/23 13:06:51;;;;;;;1.03;1.03;;;-2.40;74.60;;;;;;5020285;28;20199;-74
2022/01/23 13:09:24;;;;;;;0.60;0.60;;;-2.40;74.30;;;;;;5017593;28;20202;-73
2022/01/23 13:31:16;;;;;;;0.53;0.53;;;-2.40;74.50;;;;;;4963853;28;20195;-71
2022/01/23 13:33:42;;;;;;;0.93;0.90;;;-2.50;74.60;;;;;;4962814;28;20182;-70
2022/01/23 13:36:11;;;;;;;0.90;0.90;;;-2.50;74.60;;;;;;4963257;28;20249;-70
2022/01/23 13:38:38;;;;;;;1.73;1.63;;;-2.50;74.70;;;;;;4963595;28;20842;-70
2022/01/23 13:41:20;;;;;;;1.30;1.00;;;-2.60;74.60;;;;;;4961577;28;20197;-71
2022/01/23 13:50:35;;;;;;;2.40;1.03;;;-2.70;74.90;;;;;;4962988;28;20211;-69
2022/01/23 13:52:55;;;;;;;0.50;0.50;;;-2.70;74.70;;;;;;4959532;28;20675;-69
2022/01/23 14:00:38;;;;;;;1.23;0.73;;;-2.60;74.90;;;;;;4983140;28;20206;-72
2022/01/23 14:03:05;;;;;;;0.83;0.60;;;-2.70;75.00;;;;;;4983093;28;20581;-71
2022/01/23 14:05:32;;;;;;;1.27;1.27;;;-2.70;74.90;;;;;;4983720;28;20201;-71
2022/01/23 14:08:01;;;;;;;0.63;0.40;;;-2.70;75.10;;;;;;4982754;28;20194;-71
2022/01/23 14:10:31;;;;;;;1.80;1.10;;;-2.70;75.20;;;;;;4983076;28;20688;-71
2022/01/23 14:13:07;;;;;;;1.07;0.77;;;-2.60;75.30;;;;;;4983540;28;20211;-70
2022/01/23 14:15:33;;;;;;;0.73;0.73;;;-2.60;75.20;;;;;;4983765;28;20570;-71
2022/01/23 14:18:10;;;;;;;0.77;0.77;;;-2.60;75.10;;;;;;4981563;28;20304;-71
2022/01/23 14:20:43;;;;;;;3.83;1.40;;;-2.60;75.30;;;;;;4980723;28;20192;-71
2022/01/23 14:23:22;;;;;;;1.27;1.00;;;-2.60;75.10;;;;;;4966281;28;20206;-70
2022/01/23 14:25:54;;;;;;;0.83;0.83;;;-2.60;75.10;;;;;;4981188;28;20702;-71
2022/01/23 14:28:22;;;;;;;0.80;0.80;;;-2.60;75.00;;;;;;4982315;28;20221;-71
2022/01/23 14:30:53;;;;;;;0.67;0.67;;;-2.60;75.10;;;;;;4982825;28;20197;-71
2022/01/23 14:33:29;;;;;;;1.20;1.10;;;-2.60;74.90;;;;;;4983298;28;20177;-70
2022/01/23 14:35:56;;;;;;;0.70;0.70;;;-2.60;75.00;;;;;;4982238;28;20290;-71
2022/01/23 14:38:24;;;;;;;2.90;0.97;;;-2.70;74.90;;;;;;5045456;28;20351;-71
2022/01/23 14:40:59;;;;;;;0.57;0.40;;;-2.70;75.20;;;;;;5075335;28;20182;-71
2022/01/23 14:43:34;;;;;;;0.60;0.60;;;-2.70;75.30;;;;;;5070684;28;20701;-71
2022/01/23 14:46:03;;;;;;;0.63;0.63;;;-2.60;75.60;;;;;;5065888;28;20761;-72
2022/01/23 14:48:29;;;;;;;0.50;0.50;;;-2.70;75.40;;;;;;5071236;28;20171;-71
2022/01/23 14:50:56;;;;;;;1.03;1.03;;;-2.70;75.80;;;;;;5066347;28;20585;-71
2022/01/23 14:53:24;;;;;;;0.67;0.67;;;-2.70;76.00;;;;;;5073743;28;20227;-71
2022/01/23 14:55:56;;;;;;;0.37;0.37;;;-2.70;76.00;;;;;;5065975;28;20209;-71
2022/01/23 14:58:22;;;;;;;0.40;0.40;;;-2.70;76.10;;;;;;5070287;28;20997;-71
2022/01/23 15:00:51;;;;;;;3.13;1.07;;;-2.80;76.20;;;;;;5062915;28;20584;-70
2022/01/23 15:03:18;;;;;;;1.07;1.07;;;-2.80;76.40;;;;;;5061956;28;20187;-72
2022/01/23 15:05:44;;;;;;;1.17;1.03;;;-2.80;76.50;;;;;;5067517;28;20179;-71
2022/01/23 15:08:13;;;;;;;1.03;1.03;;;-2.80;76.60;;;;;;5068733;28;20203;-71
2022/01/23 15:10:44;;;;;;;1.03;0.93;;;-2.90;76.70;;;;;;5066240;28;20596;-71
2022/01/23 15:13:11;;;;;;;0.67;0.67;;;-2.90;76.80;;;;;;5066998;28;20187;-71
2022/01/23 15:15:37;;;;;;;1.90;1.37;;;-3.00;76.90;;;;;;5071979;28;20184;-71
2022/01/23 15:18:03;;;;;;;1.53;0.97;;;-2.90;77.20;;;;;;5067260;28;20217;-71
2022/01/23 15:20:31;;;;;;;1.33;1.23;;;-3.00;77.50;;;;;;5064585;28;20259;-71
2022/01/23 15:22:57;;;;;;;0.93;0.90;;;-3.00;77.70;;;;;;5061293;28;20179;-71
2022/01/23 15:25:24;;;;;;;1.50;1.40;;;-3.00;77.90;;;;;;5066391;28;20189;-71
2022/01/23 15:27:50;;;;;;;7.33;1.00;;;-3.00;78.00;;;;;;5065158;28;20196;-71
2022/01/23 15:30:16;;;;;;;0.50;0.50;;;-3.10;78.40;;;;;;5070860;28;20181;-70
2022/01/23 15:32:46;;;;;;;2.03;1.00;;;-3.10;78.70;;;;;;5073154;28;20185;-70
2022/01/23 15:35:13;;;;;;;5.23;1.17;;;-3.10;78.90;;;;;;5070490;28;20188;-70
2022/01/23 15:37:40;;;;;;;0.90;0.83;;;-3.10;79.10;;;;;;5063546;28;20228;-71
2022/01/23 15:40:07;;;;;;;10.03;0.87;;;-3.10;79.40;;;;;;5064226;28;20593;-71
2022/01/23 15:42:33;;;;;;;1.87;1.00;;;-3.10;79.70;;;;;;5071381;28;20195;-72
2022/01/23 15:44:59;;;;;;;0.70;0.70;;;-3.20;80.10;;;;;;5062895;28;20197;-71
2022/01/23 15:47:25;;;;;;;0.63;0.63;;;-3.20;80.60;;;;;;5066332;28;20278;-71
2022/01/23 15:49:50;;;;;;;0.70;0.70;;;-3.20;80.90;;;;;;5063811;28;20219;-72
2022/01/23 15:52:16;;;;;;;0.70;0.70;;;-3.20;81.20;;;;;;5064947;28;20692;-72
2022/01/23 15:54:42;;;;;;;0.53;0.53;;;-3.20;81.40;;;;;;5071277;28;20284;-71
2022/01/23 15:57:08;;;;;;;0.87;0.87;;;-3.20;81.60;;;;;;5066960;28;20199;-71
2022/01/23 15:59:35;;;;;;;1.00;1.00;;;-3.30;81.70;;;;;;5064507;28;20188;-71
2022/01/23 16:02:06;;;;;;;0.97;0.97;;;-3.30;81.90;;;;;;5065408;28;20190;-71
2022/01/23 16:04:35;;;;;;;0.67;0.67;;;-3.40;82.00;;;;;;5067445;28;20244;-71
2022/01/23 16:07:16;;;;;;;1.23;1.23;;;-3.40;82.10;;;;;;5064371;28;20741;-71
2022/01/23 16:09:45;;;;;;;0.73;0.70;;;-3.50;82.20;;;;;;5067726;28;20675;-71
2022/01/23 16:12:13;;;;;;;1.40;0.80;;;-3.50;82.10;;;;;;5058950;28;20229;-71
2022/01/23 16:14:39;;;;;;;2.27;1.20;;;-3.50;82.20;;;;;;5066542;28;20209;-71
2022/01/23 16:17:05;;;;;;;1.03;0.60;;;-3.50;82.00;;;;;;5067085;28;20195;-71
2022/01/23 16:19:31;;;;;;;0.87;0.87;;;-3.50;81.80;;;;;;5061349;28;20255;-71
2022/01/23 16:21:57;;;;;;;2.37;0.93;;;-3.50;81.90;;;;;;5062868;28;20599;-71
2022/01/23 16:24:24;;;;;;;1.90;1.00;;;-3.40;81.80;;;;;;5070471;28;20246;-71
2022/01/23 16:26:52;;;;;;;2.93;1.47;;;-3.50;81.80;;;;;;5058356;28;20670;-71
2022/01/23 16:29:21;;;;;;;0.77;0.77;;;-3.50;81.80;;;;;;5067527;28;20201;-71
2022/01/23 16:31:51;;;;;;;0.87;0.87;;;-3.50;81.90;;;;;;5073671;28;20264;-72
2022/01/23 16:34:17;;;;;;;0.70;0.70;;;-3.60;81.90;;;;;;5067230;28;20661;-72
2022/01/23 16:36:43;;;;;;;1.23;1.13;;;-3.60;82.00;;;;;;5071702;28;20180;-71
2022/01/23 16:39:09;;;;;;;1.00;1.00;;;-3.70;82.30;;;;;;5069263;28;20222;-71